createdAt,value
2022-10-02T00:01:12.306Z,12.70
2022-10-02T00:03:43.341Z,12.70
2022-10-02T00:06:21.301Z,12.70
2022-10-02T00:08:52.457Z,12.70
2022-10-02T00:11:45.963Z,12.70
2022-10-02T00:14:16.608Z,12.70
2022-10-02T00:16:50.572Z,12.60
2022-10-02T00:19:18.559Z,12.60
2022-10-02T00:22:19.597Z,12.50
2022-10-02T00:25:03.612Z,12.50
2022-10-02T00:27:56.955Z,12.40
2022-10-02T00:30:23.971Z,12.40
2022-10-02T00:33:09.158Z,12.30
2022-10-02T00:36:04.162Z,12.30
2022-10-02T00:38:45.723Z,12.30
2022-10-02T00:41:24.963Z,12.20
2022-10-02T00:44:25.267Z,12.20
2022-10-02T00:47:20.066Z,12.10
2022-10-02T00:50:10.759Z,12.10
2022-10-02T00:53:00.567Z,12.00
2022-10-02T00:55:31.955Z,12.00
2022-10-02T00:58:33.846Z,12.00
2022-10-02T01:01:13.915Z,11.90
2022-10-02T01:04:02.053Z,11.90
2022-10-02T01:06:29.533Z,11.90
2022-10-02T01:09:02.226Z,11.80
2022-10-02T01:11:32.293Z,11.80
2022-10-02T01:14:02.535Z,11.80
2022-10-02T01:16:32.623Z,11.70
2022-10-02T01:18:59.772Z,11.70
2022-10-02T01:21:42.852Z,11.70
2022-10-02T01:24:25.568Z,11.70
2022-10-02T01:26:52.526Z,11.70
2022-10-02T01:29:19.798Z,11.70
2022-10-02T01:31:46.796Z,11.70
2022-10-02T01:34:14.065Z,11.70
2022-10-02T01:36:41.197Z,11.70
2022-10-02T01:39:08.310Z,11.70
2022-10-02T01:41:41.350Z,11.70
2022-10-02T01:44:08.392Z,11.70
2022-10-02T01:46:40.164Z,11.70
2022-10-02T01:49:25.279Z,11.70
2022-10-02T01:52:22.775Z,11.70
2022-10-02T01:54:49.942Z,11.70
2022-10-02T01:57:24.484Z,11.70
2022-10-02T02:00:07.901Z,11.70
2022-10-02T02:02:55.039Z,11.70
2022-10-02T02:05:22.117Z,11.70
2022-10-02T02:08:06.236Z,11.70
2022-10-02T02:11:00.588Z,11.70
2022-10-02T02:13:48.114Z,11.70
2022-10-02T02:16:40.514Z,11.70
2022-10-02T02:19:24.090Z,11.70
2022-10-02T02:21:57.790Z,11.80
2022-10-02T02:24:32.773Z,11.80
2022-10-02T02:27:02.129Z,11.80
2022-10-02T02:29:33.905Z,11.70
2022-10-02T02:32:05.876Z,11.80
2022-10-02T02:34:39.959Z,11.80
2022-10-02T02:37:11.835Z,11.70
2022-10-02T02:39:52.622Z,11.70
2022-10-02T02:42:26.423Z,11.70
2022-10-02T02:44:56.230Z,11.70
2022-10-02T02:47:54.070Z,11.80
2022-10-02T02:50:31.346Z,11.80
2022-10-02T02:53:30.674Z,11.80
2022-10-02T02:56:03.239Z,11.80
2022-10-02T02:58:41.808Z,11.90
2022-10-02T03:01:08.760Z,11.90
2022-10-02T03:03:36.120Z,11.90
2022-10-02T03:06:21.778Z,12.00
2022-10-02T03:08:51.603Z,12.00
2022-10-02T03:11:32.464Z,12.00
2022-10-02T03:14:08.931Z,12.00
2022-10-02T03:16:57.030Z,12.00
2022-10-02T03:19:42.369Z,12.10
2022-10-02T03:22:36.976Z,12.00
2022-10-02T03:25:10.356Z,12.00
2022-10-02T03:27:41.352Z,12.00
2022-10-02T03:30:14.909Z,12.00
2022-10-02T03:32:46.154Z,12.00
2022-10-02T03:35:15.144Z,12.00
2022-10-02T03:37:47.020Z,12.00
2022-10-02T03:40:14.361Z,12.00
2022-10-02T03:42:41.513Z,12.00
2022-10-02T03:45:09.057Z,12.00
2022-10-02T03:47:35.878Z,12.00
2022-10-02T03:50:02.833Z,12.00
2022-10-02T03:52:31.801Z,12.00
2022-10-02T03:55:04.724Z,12.00
2022-10-02T03:57:34.034Z,12.00
2022-10-02T04:00:14.780Z,12.10
2022-10-02T04:02:47.252Z,12.10
2022-10-02T04:05:29.359Z,12.10
2022-10-02T04:08:10.042Z,12.00
2022-10-02T04:10:50.936Z,12.00
2022-10-02T04:13:29.191Z,12.00
2022-10-02T04:16:20.990Z,12.00
2022-10-02T04:18:53.832Z,12.00
2022-10-02T04:21:26.498Z,11.90
2022-10-02T04:23:59.659Z,11.90
2022-10-02T04:26:30.762Z,11.90
2022-10-02T04:29:20.848Z,11.90
2022-10-02T04:31:54.418Z,11.90
2022-10-02T04:34:21.293Z,11.80
2022-10-02T04:37:12.902Z,11.80
2022-10-02T04:40:06.790Z,11.80
2022-10-02T04:42:58.198Z,11.80
2022-10-02T04:45:34.059Z,11.80
2022-10-02T04:48:22.630Z,11.80
2022-10-02T04:51:07.868Z,11.80
2022-10-02T04:54:04.802Z,11.80
2022-10-02T04:56:52.427Z,11.80
2022-10-02T04:59:49.308Z,11.70
2022-10-02T05:02:34.449Z,11.70
2022-10-02T05:05:10.380Z,11.70
2022-10-02T05:07:49.484Z,11.70
2022-10-02T05:10:44.382Z,11.70
2022-10-02T05:13:43.596Z,11.60
2022-10-02T05:16:13.245Z,11.60
2022-10-02T05:18:55.991Z,11.60
2022-10-02T05:21:41.035Z,11.60
2022-10-02T05:24:28.006Z,11.50
2022-10-02T05:27:27.825Z,11.50
2022-10-02T05:30:24.587Z,11.40
2022-10-02T05:33:34.405Z,11.40
2022-10-02T05:36:25.738Z,11.40
2022-10-02T05:39:02.741Z,11.30
2022-10-02T05:41:51.078Z,11.30
2022-10-02T05:44:57.413Z,11.30
2022-10-02T05:47:42.619Z,11.30
2022-10-02T05:50:12.610Z,11.20
2022-10-02T05:52:56.292Z,11.20
2022-10-02T05:55:34.535Z,11.20
2022-10-02T05:58:24.699Z,11.20
2022-10-02T06:01:17.962Z,11.20
2022-10-02T06:03:51.514Z,11.20
2022-10-02T06:06:39.240Z,11.20
2022-10-02T06:09:19.568Z,11.20
2022-10-02T06:11:53.295Z,11.30
2022-10-02T06:14:41.067Z,11.30
2022-10-02T06:17:15.963Z,11.30
2022-10-02T06:20:07.632Z,11.50
2022-10-02T06:23:02.383Z,11.80
2022-10-02T06:25:48.730Z,12.00
2022-10-02T06:28:30.538Z,12.20
2022-10-02T06:31:11.707Z,12.50
2022-10-02T06:33:38.890Z,12.80
2022-10-02T06:36:12.930Z,13.00
2022-10-02T06:38:48.873Z,13.10
2022-10-02T06:41:39.929Z,13.10
2022-10-02T06:44:22.281Z,13.40
2022-10-02T06:47:07.490Z,13.70
2022-10-02T06:50:00.352Z,14.00
2022-10-02T06:52:44.545Z,14.20
2022-10-02T06:55:14.436Z,14.40
2022-10-02T06:58:01.220Z,14.70
2022-10-02T07:00:28.321Z,15.00
2022-10-02T07:03:26.308Z,14.90
2022-10-02T07:06:08.816Z,14.70
2022-10-02T07:09:00.445Z,14.50
2022-10-02T07:11:41.059Z,14.20
2022-10-02T07:14:36.015Z,14.10
2022-10-02T07:17:12.059Z,14.00
2022-10-02T07:19:41.681Z,13.90
2022-10-02T07:22:39.558Z,13.90
2022-10-02T07:25:05.357Z,13.80
2022-10-02T07:28:07.083Z,13.70
2022-10-02T07:31:01.552Z,13.60
2022-10-02T07:33:58.199Z,13.50
2022-10-02T07:36:46.853Z,13.40
2022-10-02T07:39:35.830Z,13.40
2022-10-02T07:42:15.956Z,13.50
2022-10-02T07:45:06.129Z,13.70
2022-10-02T07:47:44.440Z,13.80
2022-10-02T07:50:27.566Z,13.90
2022-10-02T07:53:12.386Z,14.00
2022-10-02T07:55:44.030Z,14.00
2022-10-02T07:58:31.289Z,13.90
2022-10-02T08:01:05.992Z,13.90
2022-10-02T08:03:43.345Z,13.80
2022-10-02T08:06:10.514Z,13.90
2022-10-02T08:09:03.060Z,13.90
2022-10-02T08:11:37.017Z,14.00
2022-10-02T08:14:30.231Z,14.30
2022-10-02T08:17:02.457Z,14.30
2022-10-02T08:19:45.510Z,14.30
2022-10-02T08:22:24.089Z,14.40
2022-10-02T08:25:00.161Z,14.50
2022-10-02T08:27:44.800Z,14.40
2022-10-02T08:30:14.627Z,14.30
2022-10-02T08:32:41.609Z,14.30
2022-10-02T08:35:14.441Z,14.20
2022-10-02T08:38:10.176Z,14.10
2022-10-02T08:41:05.178Z,14.10
2022-10-02T08:44:06.220Z,14.00
2022-10-02T08:46:36.337Z,14.00
2022-10-02T08:49:30.589Z,14.00
2022-10-02T08:52:42.460Z,14.00
2022-10-02T08:55:31.449Z,13.90
2022-10-02T08:58:19.667Z,13.90
2022-10-02T09:01:12.051Z,13.90
2022-10-02T09:03:57.994Z,13.90
2022-10-02T09:06:38.742Z,14.00
2022-10-02T09:09:30.178Z,14.10
2022-10-02T09:12:14.923Z,14.20
2022-10-02T09:15:07.216Z,14.40
2022-10-02T09:18:03.382Z,14.80
2022-10-02T09:21:11.429Z,15.20
2022-10-02T09:23:57.067Z,15.50
2022-10-02T09:26:29.692Z,15.50
2022-10-02T09:29:21.389Z,16.10
2022-10-02T09:32:16.399Z,17.40
2022-10-02T09:35:34.259Z,18.80
2022-10-02T09:38:30.054Z,19.90
2022-10-02T09:41:39.855Z,20.60
2022-10-02T09:44:29.190Z,21.20
2022-10-02T09:47:04.959Z,21.80
2022-10-02T09:49:53.609Z,22.30
2022-10-02T09:52:50.661Z,22.30
2022-10-02T09:56:10.139Z,22.30
2022-10-02T09:58:36.950Z,22.50
2022-10-02T10:01:16.089Z,22.70
2022-10-02T10:04:08.453Z,22.90
2022-10-02T10:06:53.431Z,23.00
2022-10-02T10:09:41.734Z,23.00
2022-10-02T10:12:41.602Z,23.20
2022-10-02T10:15:45.993Z,22.60
2022-10-02T10:18:17.233Z,22.80
2022-10-02T10:20:56.664Z,23.30
2022-10-02T10:23:42.389Z,23.80
2022-10-02T10:26:36.545Z,24.10
2022-10-02T10:29:07.716Z,23.10
2022-10-02T10:31:56.716Z,21.90
2022-10-02T10:34:33.001Z,20.70
2022-10-02T10:37:27.057Z,20.10
2022-10-02T10:40:14.356Z,20.90
2022-10-02T10:43:20.470Z,21.90
2022-10-02T10:46:03.924Z,22.50
2022-10-02T10:48:56.695Z,22.50
2022-10-02T10:51:59.944Z,23.20
2022-10-02T10:54:44.914Z,24.10
2022-10-02T10:57:38.942Z,24.40
2022-10-02T11:00:11.981Z,25.00
2022-10-02T11:02:44.710Z,25.30
2022-10-02T11:05:57.282Z,25.60
2022-10-02T11:08:45.531Z,26.00
2022-10-02T11:11:15.581Z,26.20
2022-10-02T11:14:16.049Z,25.80
2022-10-02T11:16:44.131Z,25.40
2022-10-02T11:19:41.212Z,24.80
2022-10-02T11:22:37.898Z,25.10
2022-10-02T11:25:42.780Z,25.10
2022-10-02T11:29:01.262Z,24.30
2022-10-02T11:31:54.403Z,23.10
2022-10-02T11:34:52.683Z,21.60
2022-10-02T11:37:47.624Z,21.10
2022-10-02T11:40:26.925Z,21.60
2022-10-02T11:43:02.290Z,22.90
2022-10-02T11:45:54.208Z,24.00
2022-10-02T11:48:38.344Z,24.80
2022-10-02T11:51:11.534Z,25.10
2022-10-02T11:53:57.697Z,25.40
2022-10-02T11:56:42.498Z,26.00
2022-10-02T11:59:47.129Z,25.60
2022-10-02T12:02:24.501Z,26.00
2022-10-02T12:05:08.534Z,25.50
2022-10-02T12:07:53.449Z,23.70
2022-10-02T12:10:32.089Z,22.20
2022-10-02T12:13:21.023Z,22.50
2022-10-02T12:15:47.963Z,23.40
2022-10-02T12:18:43.388Z,24.30
2022-10-02T12:21:44.925Z,25.10
2022-10-02T12:24:33.409Z,25.20
2022-10-02T12:27:22.753Z,24.40
2022-10-02T12:30:04.104Z,24.70
2022-10-02T12:32:53.143Z,23.70
2022-10-02T12:35:46.720Z,24.00
2022-10-02T12:38:52.357Z,24.10
2022-10-02T12:41:22.437Z,23.60
2022-10-02T12:43:59.733Z,22.60
2022-10-02T12:46:39.313Z,21.90
2022-10-02T12:49:25.494Z,20.80
2022-10-02T12:52:09.879Z,20.20
2022-10-02T12:54:53.476Z,19.80
2022-10-02T12:57:58.826Z,19.20
2022-10-02T13:00:31.329Z,18.90
2022-10-02T13:03:37.440Z,19.20
2022-10-02T13:06:46.726Z,20.50
2022-10-02T13:09:35.425Z,22.00
2022-10-02T13:12:14.317Z,23.40
2022-10-02T13:15:06.507Z,24.10
2022-10-02T13:17:34.102Z,24.80
2022-10-02T13:20:22.352Z,25.00
2022-10-02T13:23:17.074Z,25.40
2022-10-02T13:26:30.034Z,25.70
2022-10-02T13:29:31.396Z,25.90
2022-10-02T13:32:24.460Z,26.40
2022-10-02T13:35:25.128Z,26.60
2022-10-02T13:38:33.619Z,26.20
2022-10-02T13:41:15.425Z,26.20
2022-10-02T13:44:04.532Z,26.00
2022-10-02T13:46:46.534Z,26.10
2022-10-02T13:49:36.047Z,26.70
2022-10-02T13:52:07.604Z,26.70
2022-10-02T13:54:50.374Z,26.60
2022-10-02T13:58:06.724Z,26.50
2022-10-02T14:00:42.595Z,25.60
2022-10-02T14:03:15.553Z,25.80
2022-10-02T14:05:58.778Z,25.90
2022-10-02T14:08:47.116Z,25.60
2022-10-02T14:11:32.509Z,25.50
2022-10-02T14:14:11.474Z,24.10
2022-10-02T14:17:04.627Z,23.00
2022-10-02T14:19:44.794Z,22.00
2022-10-02T14:22:37.296Z,20.90
2022-10-02T14:25:13.092Z,20.30
2022-10-02T14:27:54.837Z,19.80
2022-10-02T14:30:42.051Z,19.40
2022-10-02T14:33:47.093Z,19.10
2022-10-02T14:36:37.381Z,18.80
2022-10-02T14:39:21.540Z,18.40
2022-10-02T14:41:57.384Z,18.30
2022-10-02T14:44:43.857Z,18.20
2022-10-02T14:47:41.847Z,18.00
2022-10-02T14:50:46.687Z,17.80
2022-10-02T14:53:35.391Z,17.70
2022-10-02T14:56:25.544Z,17.70
2022-10-02T14:59:10.538Z,17.80
2022-10-02T15:02:10.066Z,17.90
2022-10-02T15:04:42.820Z,18.10
2022-10-02T15:07:12.195Z,18.00
2022-10-02T15:09:51.980Z,17.90
2022-10-02T15:12:26.034Z,17.90
2022-10-02T15:15:23.385Z,17.90
2022-10-02T15:18:13.074Z,17.90
2022-10-02T15:21:00.608Z,17.80
2022-10-02T15:23:33.572Z,17.70
2022-10-02T15:26:38.409Z,17.60
2022-10-02T15:29:08.462Z,17.60
2022-10-02T15:31:44.370Z,17.60
2022-10-02T15:34:42.350Z,17.50
2022-10-02T15:37:54.759Z,17.50
2022-10-02T15:40:28.473Z,17.40
2022-10-02T15:42:58.817Z,17.30
2022-10-02T15:45:50.820Z,17.10
2022-10-02T15:48:32.847Z,17.10
2022-10-02T15:51:37.401Z,16.90
2022-10-02T15:54:21.614Z,16.80
2022-10-02T15:56:56.921Z,16.80
2022-10-02T15:59:54.337Z,16.70
2022-10-02T16:02:31.168Z,16.60
2022-10-02T16:05:32.616Z,16.50
2022-10-02T16:08:19.860Z,16.40
2022-10-02T16:11:13.833Z,16.30
2022-10-02T16:14:29.899Z,16.30
2022-10-02T16:17:24.092Z,16.20
2022-10-02T16:20:02.711Z,16.10
2022-10-02T16:22:49.890Z,16.00
2022-10-02T16:25:36.543Z,16.00
2022-10-02T16:28:23.965Z,15.90
2022-10-02T16:30:51.059Z,15.80
2022-10-02T16:33:31.900Z,15.70
2022-10-02T16:36:30.002Z,15.60
2022-10-02T16:39:10.559Z,15.50
2022-10-02T16:42:21.093Z,15.50
2022-10-02T16:45:02.888Z,15.40
2022-10-02T16:47:43.186Z,15.40
2022-10-02T16:50:13.752Z,15.40
2022-10-02T16:52:56.817Z,15.40
2022-10-02T16:55:40.836Z,15.40
2022-10-02T16:58:13.801Z,15.30
2022-10-02T17:01:23.834Z,15.30
2022-10-02T17:04:20.012Z,15.20
2022-10-02T17:06:53.647Z,15.10
2022-10-02T17:09:41.557Z,15.00
2022-10-02T17:12:23.780Z,15.00
2022-10-02T17:15:01.641Z,14.80
2022-10-02T17:17:59.202Z,14.80
2022-10-02T17:20:31.728Z,14.80
2022-10-02T17:23:26.777Z,14.70
2022-10-02T17:26:11.914Z,14.70
2022-10-02T17:29:05.506Z,14.70
2022-10-02T17:31:46.355Z,14.60
2022-10-02T17:34:42.473Z,14.70
2022-10-02T17:37:09.383Z,14.70
2022-10-02T17:39:59.813Z,14.70
2022-10-02T17:42:51.923Z,14.80
2022-10-02T17:45:31.865Z,14.70
2022-10-02T17:48:23.597Z,14.60
2022-10-02T17:51:14.966Z,14.60
2022-10-02T17:54:37.866Z,14.50
2022-10-02T17:57:36.302Z,14.40
2022-10-02T18:00:16.239Z,14.30
2022-10-02T18:02:58.860Z,14.30
2022-10-02T18:05:32.629Z,14.30
2022-10-02T18:08:35.011Z,14.30
2022-10-02T18:11:27.033Z,14.30
2022-10-02T18:14:12.874Z,14.20
2022-10-02T18:16:48.415Z,14.20
2022-10-02T18:19:39.881Z,14.10
2022-10-02T18:22:40.904Z,14.10
2022-10-02T18:25:20.068Z,14.10
2022-10-02T18:28:12.955Z,14.10
2022-10-02T18:30:45.594Z,14.00
2022-10-02T18:34:09.828Z,14.00
2022-10-02T18:37:00.008Z,13.90
2022-10-02T18:39:51.874Z,13.80
2022-10-02T18:42:40.036Z,13.80
2022-10-02T18:45:43.691Z,13.70
2022-10-02T18:48:10.770Z,13.70
2022-10-02T18:50:56.122Z,13.60
2022-10-02T18:53:31.898Z,13.60
2022-10-02T18:56:06.949Z,13.60
2022-10-02T18:58:58.682Z,13.60
2022-10-02T19:01:28.622Z,13.50
2022-10-02T19:04:18.439Z,13.50
2022-10-02T19:07:00.449Z,13.50
2022-10-02T19:09:28.514Z,13.50
2022-10-02T19:11:57.682Z,13.40
2022-10-02T19:14:45.932Z,13.40
2022-10-02T19:17:14.482Z,13.50
2022-10-02T19:19:42.472Z,13.40
2022-10-02T19:22:32.029Z,13.40
2022-10-02T19:25:16.272Z,13.40
2022-10-02T19:27:49.356Z,13.40
2022-10-02T19:30:28.260Z,13.30
2022-10-02T19:33:04.107Z,13.30
2022-10-02T19:35:33.763Z,13.20
2022-10-02T19:38:20.496Z,13.20
2022-10-02T19:40:53.338Z,13.20
2022-10-02T19:43:29.347Z,13.10
2022-10-02T19:46:01.608Z,13.10
2022-10-02T19:48:31.529Z,13.10
2022-10-02T19:50:59.904Z,13.00
2022-10-02T19:53:53.321Z,13.10
2022-10-02T19:56:32.629Z,13.00
2022-10-02T19:59:10.673Z,13.00
2022-10-02T20:02:00.632Z,13.00
2022-10-02T20:04:32.093Z,13.00
2022-10-02T20:07:00.586Z,13.00
2022-10-02T20:09:38.388Z,13.00
2022-10-02T20:12:16.387Z,13.00
2022-10-02T20:14:56.106Z,12.90
2022-10-02T20:17:23.373Z,12.90
2022-10-02T20:20:01.584Z,12.90
2022-10-02T20:22:40.506Z,12.90
2022-10-02T20:25:26.515Z,12.90
2022-10-02T20:28:17.398Z,12.90
2022-10-02T20:31:06.153Z,12.80
2022-10-02T20:33:45.895Z,12.80
2022-10-02T20:36:29.056Z,12.80
2022-10-02T20:39:03.848Z,12.70
2022-10-02T20:41:37.287Z,12.70
2022-10-02T20:44:06.531Z,12.70
2022-10-02T20:46:52.577Z,12.60
2022-10-02T20:49:54.790Z,12.60
2022-10-02T20:52:56.959Z,12.60
2022-10-02T20:55:41.484Z,12.60
2022-10-02T20:58:36.738Z,12.50
2022-10-02T21:01:19.853Z,12.50
2022-10-02T21:04:17.779Z,12.50
2022-10-02T21:07:04.192Z,12.50
2022-10-02T21:09:51.878Z,12.50
2022-10-02T21:12:40.594Z,12.50
2022-10-02T21:15:44.780Z,12.40
2022-10-02T21:18:17.919Z,12.40
2022-10-02T21:21:00.491Z,12.40
2022-10-02T21:24:05.171Z,12.40
2022-10-02T21:26:50.232Z,12.40
2022-10-02T21:29:35.446Z,12.30
2022-10-02T21:32:29.583Z,12.30
2022-10-02T21:35:04.743Z,12.30
2022-10-02T21:38:03.925Z,12.30
2022-10-02T21:40:42.706Z,12.30
2022-10-02T21:43:21.737Z,12.30
2022-10-02T21:45:57.661Z,12.30
2022-10-02T21:48:34.081Z,12.20
2022-10-02T21:51:12.990Z,12.20
2022-10-02T21:54:19.008Z,12.20
2022-10-02T21:57:16.767Z,12.10
2022-10-02T22:00:08.692Z,12.10
2022-10-02T22:03:14.765Z,12.10
2022-10-02T22:05:47.804Z,12.00
2022-10-02T22:08:24.678Z,12.00
2022-10-02T22:11:19.499Z,12.00
2022-10-02T22:13:49.645Z,12.00
2022-10-02T22:16:48.396Z,12.00
2022-10-02T22:19:43.911Z,12.10
2022-10-02T22:22:53.979Z,12.10
2022-10-02T22:25:39.261Z,12.20
2022-10-02T22:28:32.357Z,12.30
2022-10-02T22:31:28.583Z,12.30
2022-10-02T22:34:01.322Z,12.30
2022-10-02T22:36:36.956Z,12.30
2022-10-02T22:39:25.117Z,12.20
2022-10-02T22:42:08.845Z,12.20
2022-10-02T22:45:13.709Z,12.20
2022-10-02T22:47:42.975Z,12.10
2022-10-02T22:50:48.178Z,12.00
2022-10-02T22:53:27.914Z,12.00
2022-10-02T22:55:56.218Z,11.90
2022-10-02T22:58:32.205Z,11.90
2022-10-02T23:01:11.543Z,11.90
2022-10-02T23:04:01.640Z,11.90
2022-10-02T23:06:55.787Z,11.90
2022-10-02T23:09:27.143Z,11.90
2022-10-02T23:11:58.451Z,11.80
2022-10-02T23:14:38.027Z,11.80
2022-10-02T23:17:13.569Z,11.70
2022-10-02T23:19:43.515Z,11.70
2022-10-02T23:22:24.518Z,11.70
2022-10-02T23:25:17.307Z,11.70
2022-10-02T23:28:01.330Z,11.70
2022-10-02T23:30:30.600Z,11.70
2022-10-02T23:33:06.373Z,11.70
2022-10-02T23:35:38.377Z,11.60
2022-10-02T23:38:27.462Z,11.60
2022-10-02T23:41:35.643Z,11.60
2022-10-02T23:44:35.814Z,11.60
2022-10-02T23:47:17.676Z,11.60
2022-10-02T23:49:52.445Z,11.70
2022-10-02T23:52:54.224Z,11.70
2022-10-02T23:55:42.788Z,11.80
2022-10-02T23:58:38.133Z,11.90
